Hartford, Connecticut
Traffic Map
Current Weather Conditions
Hartford, Connecticut
Clear
Clear
-15°
Feels Like: -15°
Wind Chill: -15° Ceiling: Unl
Heat Index: -15° Visibility: 7mi
Dew Point: -17° Wind: 0mph
Humidity: 84% Direction: ° ()
Pressure: 30.72in Gusts: 0mph
Raw Report DataKHFD 010753Z AUTO 00000KT 7SM CLR M15/M17 A3072 RMK AO2 SLP402 I1000 T11501172
Traffic Incident Summary
Active as of:
Severity:
Category:
InformationThere was an issue retrieving the traffic information for this location. Please try a different location or try again shortly.
Advertisements
Track Severe Weather on mobile